Overview Statistics Trail Chart Weather Telemetry Raw packets
 

This is the latest recevied weather packets stored in our database for station/object ED1ZAI-13. If no packets are shown the sender has not sent any weather packets the latest 10 day(s).

<< 7 8 9 10 11 12 13 >>
Time Temp. Humidity Pressure Rain* Wind** Luminosity Snow
1788493793 18.89° C 40% 1023.9 hPa - - - -
1788493192 18.89° C 39% 1024 hPa - - - -
1788492592 18.89° C 40% 1023.9 hPa - - - -
1788491992 19.44° C 39% 1024 hPa - - - -
1788491391 19.44° C 38% 1024.3 hPa - - - -
1788490791 19.44° C 39% 1024.3 hPa - - - -
1788490193 18.89° C 41% 1024.1 hPa - - - -
1788489592 18.89° C 41% 1024.1 hPa - - - -
1788488992 19.44° C 40% 1024.3 hPa - - - -
1788488392 20° C 39% 1024.2 hPa - - - -
1788487791 20° C 40% 1024.2 hPa - - - -
1788487191 20° C 41% 1024.2 hPa - - - -
1788486507 19.44° C 42% 1024.3 hPa - - - -
1788485906 19.44° C 43% 1024 hPa - - - -
1788485306 19.44° C 44% 1023.8 hPa - - - -
1788484706 19.44° C 44% 1023.6 hPa - - - -
1788484105 19.44° C 44% 1023.8 hPa - - - -
1788483505 20° C 44% 1023.8 hPa - - - -
1788482905 20.56° C 42% 1024.1 hPa - - - -
1788482305 21.11° C 40% 1024.6 hPa - - - -
1788481704 20.56° C 41% 1024.5 hPa - - - -
1788481129 20.56° C 41% 1024.4 hPa - - - -
1788480506 20.56° C 41% 1024.5 hPa - - - -
1788479905 21.11° C 39% 1025.1 hPa - - - -
1788479305 21.67° C 37% 1025.4 hPa - - - -

* Rain since midnight (hover to see other rain measurements)
** Current wind speed in m/s (hover to see current wind gust speed)